createdAt,value
2018-04-29T00:00:26.084Z,0
2018-04-29T00:01:27.482Z,0
2018-04-29T00:02:28.891Z,0
2018-04-29T00:03:30.293Z,0
2018-04-29T00:04:31.693Z,0
2018-04-29T00:05:33.100Z,0
2018-04-29T00:06:34.490Z,0
2018-04-29T00:07:35.891Z,0
2018-04-29T00:08:37.303Z,0
2018-04-29T00:09:38.703Z,0
2018-04-29T00:10:40.101Z,0
2018-04-29T00:11:41.516Z,0
2018-04-29T00:12:42.909Z,0
2018-04-29T00:13:44.312Z,0
2018-04-29T00:14:45.710Z,0
2018-04-29T00:15:47.109Z,0
2018-04-29T00:16:48.512Z,0
2018-04-29T00:17:49.911Z,0
2018-04-29T00:18:51.312Z,0
2018-04-29T00:19:52.715Z,0
2018-04-29T00:20:54.108Z,0
2018-04-29T00:21:55.502Z,0
2018-04-29T00:22:56.912Z,0
2018-04-29T00:23:58.314Z,0
2018-04-29T00:24:59.723Z,0
2018-04-29T00:26:01.129Z,0
2018-04-29T00:27:02.524Z,0
2018-04-29T00:28:03.920Z,0
2018-04-29T00:29:05.330Z,0
2018-04-29T00:30:06.723Z,0
2018-04-29T00:31:08.127Z,0
2018-04-29T00:32:09.516Z,0
2018-04-29T00:33:10.919Z,0
2018-04-29T00:34:12.331Z,0
2018-04-29T00:35:13.729Z,0
2018-04-29T00:36:15.128Z,0
2018-04-29T00:37:16.533Z,0
2018-04-29T00:38:17.939Z,0
2018-04-29T00:39:19.345Z,0
2018-04-29T00:40:20.741Z,0
2018-04-29T00:41:22.149Z,0
2018-04-29T00:42:23.551Z,0
2018-04-29T00:43:24.945Z,0
2018-04-29T00:44:26.346Z,0
2018-04-29T00:45:27.749Z,0
2018-04-29T00:46:29.149Z,0
2018-04-29T00:47:30.549Z,0
2018-04-29T00:48:31.951Z,0
2018-04-29T00:49:33.347Z,0
2018-04-29T00:50:34.750Z,0
2018-04-29T00:51:36.147Z,0
2018-04-29T00:52:37.550Z,0
2018-04-29T00:53:38.954Z,0
2018-04-29T00:54:40.357Z,0
2018-04-29T00:55:41.748Z,0
2018-04-29T00:56:43.146Z,0
2018-04-29T00:57:44.569Z,0
2018-04-29T00:58:45.945Z,0
2018-04-29T00:59:47.348Z,0
2018-04-29T01:00:48.747Z,0
2018-04-29T01:01:50.152Z,0
2018-04-29T01:02:51.559Z,0
2018-04-29T01:03:52.950Z,0
2018-04-29T01:04:54.354Z,0
2018-04-29T01:05:55.867Z,0
2018-04-29T01:06:57.202Z,0
2018-04-29T01:07:58.604Z,0
2018-04-29T01:09:00.004Z,0
2018-04-29T01:10:01.410Z,0
2018-04-29T01:11:02.806Z,0
2018-04-29T01:12:04.208Z,0
2018-04-29T01:13:05.599Z,0
2018-04-29T01:14:07.003Z,0
2018-04-29T01:15:08.404Z,0
2018-04-29T01:16:09.807Z,0
2018-04-29T01:17:11.211Z,0
2018-04-29T01:18:12.607Z,0
2018-04-29T01:19:14.008Z,0
2018-04-29T01:20:15.407Z,0
2018-04-29T01:21:16.810Z,0
2018-04-29T01:22:18.227Z,0
2018-04-29T01:23:19.612Z,0
2018-04-29T01:24:21.016Z,0
2018-04-29T01:25:22.402Z,0
2018-04-29T01:26:23.800Z,0
2018-04-29T01:27:25.200Z,0
2018-04-29T01:28:26.601Z,0
2018-04-29T01:29:27.999Z,0
2018-04-29T01:30:29.402Z,0
2018-04-29T01:31:30.807Z,0
2018-04-29T01:32:32.200Z,0
2018-04-29T01:33:33.598Z,0
2018-04-29T01:34:35.004Z,0
2018-04-29T01:35:36.403Z,0
2018-04-29T01:36:37.808Z,0
2018-04-29T01:37:39.209Z,0
2018-04-29T01:38:40.609Z,0
2018-04-29T01:39:42.006Z,0
2018-04-29T01:40:43.403Z,0
2018-04-29T01:41:44.800Z,0
2018-04-29T01:42:46.199Z,0
2018-04-29T01:43:47.606Z,0
2018-04-29T01:44:49.002Z,0
2018-04-29T01:45:50.397Z,0
2018-04-29T01:46:51.812Z,0
2018-04-29T01:47:53.222Z,0
2018-04-29T01:48:54.611Z,0
2018-04-29T01:49:56.013Z,0
2018-04-29T01:50:57.413Z,0
2018-04-29T01:51:58.816Z,0
2018-04-29T01:53:00.210Z,0
2018-04-29T01:54:01.609Z,0
2018-04-29T01:55:03.015Z,0
2018-04-29T01:56:04.408Z,0
2018-04-29T01:57:05.800Z,0
2018-04-29T01:58:07.202Z,0
2018-04-29T01:59:08.614Z,0
2018-04-29T02:00:10.013Z,0
2018-04-29T02:01:11.408Z,0
2018-04-29T02:02:12.812Z,0
2018-04-29T02:03:14.210Z,0
2018-04-29T02:04:15.611Z,0
2018-04-29T02:05:17.011Z,0
2018-04-29T02:06:18.420Z,0
2018-04-29T02:07:19.823Z,0
2018-04-29T02:08:21.217Z,0
2018-04-29T02:09:22.628Z,0
2018-04-29T02:10:24.034Z,0
2018-04-29T02:11:25.452Z,0
2018-04-29T02:12:26.833Z,0
2018-04-29T02:13:28.235Z,0
2018-04-29T02:14:29.636Z,0
2018-04-29T02:15:31.027Z,0
2018-04-29T02:16:32.426Z,0
2018-04-29T02:17:33.831Z,0
2018-04-29T02:18:35.229Z,0
2018-04-29T02:19:36.626Z,0
2018-04-29T02:20:38.024Z,0
2018-04-29T02:21:39.422Z,0
2018-04-29T02:22:40.823Z,0
2018-04-29T02:23:42.239Z,0
2018-04-29T02:24:43.646Z,0
2018-04-29T02:25:45.042Z,0
2018-04-29T02:26:46.444Z,0
2018-04-29T02:27:47.841Z,0
2018-04-29T02:28:49.239Z,0
2018-04-29T02:29:50.640Z,0
2018-04-29T02:30:52.040Z,0
2018-04-29T02:31:53.445Z,0
2018-04-29T02:32:54.836Z,0
2018-04-29T02:33:56.245Z,0
2018-04-29T02:34:57.643Z,0
2018-04-29T02:35:59.042Z,0
2018-04-29T02:37:00.441Z,0
2018-04-29T02:38:01.839Z,0
2018-04-29T02:39:03.243Z,0
2018-04-29T02:40:04.648Z,0
2018-04-29T02:41:06.046Z,0
2018-04-29T02:42:07.447Z,0
2018-04-29T02:43:08.842Z,0
2018-04-29T02:44:10.248Z,0
2018-04-29T02:45:11.665Z,0
2018-04-29T02:46:13.065Z,0
2018-04-29T02:47:14.462Z,0
2018-04-29T02:48:15.865Z,0
2018-04-29T02:49:17.274Z,0
2018-04-29T02:50:18.697Z,0
2018-04-29T02:51:20.074Z,0
2018-04-29T02:52:21.484Z,0
2018-04-29T02:53:22.879Z,0
2018-04-29T02:54:24.286Z,0
2018-04-29T02:55:25.697Z,0
2018-04-29T02:56:27.097Z,0
2018-04-29T02:57:28.499Z,0
2018-04-29T02:58:29.891Z,0
2018-04-29T02:59:31.288Z,0
2018-04-29T03:00:32.693Z,0
2018-04-29T03:01:34.090Z,0
2018-04-29T03:02:35.498Z,0
2018-04-29T03:03:36.909Z,0
2018-04-29T03:04:38.309Z,0
2018-04-29T03:05:39.713Z,0
2018-04-29T03:06:41.123Z,0
2018-04-29T03:07:43.283Z,0
2018-04-29T03:08:44.863Z,0
2018-04-29T03:09:46.337Z,0
2018-04-29T03:10:47.776Z,0
2018-04-29T03:11:49.188Z,0
2018-04-29T03:12:50.598Z,0
2018-04-29T03:13:51.988Z,0
2018-04-29T03:14:53.512Z,0
2018-04-29T03:15:54.941Z,0
2018-04-29T03:16:56.354Z,0
2018-04-29T03:17:57.750Z,0
2018-04-29T03:18:59.156Z,0
2018-04-29T03:20:00.616Z,0
2018-04-29T03:21:02.098Z,0
2018-04-29T03:22:03.521Z,0
2018-04-29T03:23:05.005Z,0
2018-04-29T03:24:06.490Z,0
2018-04-29T03:25:08.005Z,0
2018-04-29T03:26:09.520Z,0
2018-04-29T03:27:10.920Z,0
2018-04-29T03:28:12.318Z,4
2018-04-29T03:29:13.732Z,4
2018-04-29T03:30:15.146Z,0
2018-04-29T03:31:16.674Z,4
2018-04-29T03:32:18.140Z,0
2018-04-29T03:33:19.656Z,4
2018-04-29T03:34:21.150Z,4
2018-04-29T03:35:22.633Z,4
2018-04-29T03:36:24.090Z,8
2018-04-29T03:37:25.599Z,8
2018-04-29T03:38:27.158Z,8
2018-04-29T03:39:28.657Z,4
2018-04-29T03:40:30.094Z,8
2018-04-29T03:41:31.588Z,8
2018-04-29T03:42:32.995Z,8
2018-04-29T03:43:34.397Z,8
2018-04-29T03:44:35.808Z,8
2018-04-29T03:45:37.209Z,8
2018-04-29T03:46:38.638Z,8
2018-04-29T03:47:40.135Z,8
2018-04-29T03:48:41.612Z,12
2018-04-29T03:49:43.106Z,12
2018-04-29T03:50:44.538Z,12
2018-04-29T03:51:46.038Z,16
2018-04-29T03:52:47.543Z,20
2018-04-29T03:53:49.777Z,24
2018-04-29T03:54:51.303Z,28
2018-04-29T03:55:52.837Z,32
2018-04-29T03:56:54.325Z,36
2018-04-29T03:57:55.835Z,36
2018-04-29T03:58:57.316Z,40
2018-04-29T03:59:58.784Z,48
2018-04-29T04:01:00.291Z,52
2018-04-29T04:02:01.753Z,60
2018-04-29T04:03:03.262Z,68
2018-04-29T04:04:04.730Z,72
2018-04-29T04:05:06.226Z,80
2018-04-29T04:06:07.719Z,84
2018-04-29T04:07:09.147Z,92
2018-04-29T04:08:10.857Z,104
2018-04-29T04:09:12.249Z,112
2018-04-29T04:10:13.832Z,116
2018-04-29T04:11:15.323Z,128
2018-04-29T04:12:16.803Z,128
2018-04-29T04:13:18.222Z,132
2018-04-29T04:14:19.699Z,140
2018-04-29T04:15:21.167Z,144
2018-04-29T04:16:22.588Z,148
2018-04-29T04:17:24.082Z,152
2018-04-29T04:18:25.506Z,164
2018-04-29T04:19:27.013Z,180
2018-04-29T04:20:29.196Z,188
2018-04-29T04:21:30.746Z,200
2018-04-29T04:22:32.169Z,212
2018-04-29T04:23:33.651Z,216
2018-04-29T04:24:35.148Z,220
2018-04-29T04:25:36.625Z,228
2018-04-29T04:26:38.062Z,240
2018-04-29T04:27:39.586Z,244
2018-04-29T04:28:41.130Z,248
2018-04-29T04:29:42.603Z,244
2018-04-29T04:30:44.079Z,252
2018-04-29T04:31:45.521Z,260
2018-04-29T04:32:47.051Z,272
2018-04-29T04:33:48.579Z,280
2018-04-29T04:34:50.076Z,300
2018-04-29T04:35:51.571Z,328
2018-04-29T04:36:52.997Z,360
2018-04-29T04:37:54.421Z,360
2018-04-29T04:38:55.849Z,344
2018-04-29T04:39:57.324Z,340
2018-04-29T04:40:58.770Z,348
2018-04-29T04:42:00.265Z,360
2018-04-29T04:43:01.728Z,376
2018-04-29T04:44:03.190Z,380
2018-04-29T04:45:04.664Z,376
2018-04-29T04:46:06.155Z,356
2018-04-29T04:47:07.718Z,348
2018-04-29T04:48:09.220Z,328
2018-04-29T04:49:17.256Z,316
2018-04-29T04:50:21.107Z,320
2018-04-29T04:51:23.359Z,332
2018-04-29T04:52:27.553Z,344
2018-04-29T04:53:34.433Z,360
2018-04-29T04:54:40.074Z,388
2018-04-29T04:55:41.465Z,452
2018-04-29T04:56:46.904Z,512
2018-04-29T04:57:51.591Z,548
2018-04-29T04:58:52.360Z,644
2018-04-29T04:59:55.336Z,732
2018-04-29T05:00:58.044Z,852
2018-04-29T05:01:59.772Z,960
2018-04-29T05:03:01.375Z,1072
2018-04-29T05:04:04.317Z,1160
2018-04-29T05:05:09.981Z,1184
2018-04-29T05:06:12.041Z,1196
2018-04-29T05:07:13.465Z,1244
2018-04-29T05:08:14.886Z,1340
2018-04-29T05:09:16.366Z,1472
2018-04-29T05:10:17.829Z,1608
2018-04-29T05:11:19.344Z,1720
2018-04-29T05:12:20.809Z,1796
2018-04-29T05:13:22.225Z,1832
2018-04-29T05:14:23.666Z,1856
2018-04-29T05:15:25.197Z,1864
2018-04-29T05:16:26.731Z,1880
2018-04-29T05:17:28.286Z,1932
2018-04-29T05:18:29.777Z,2036
2018-04-29T05:19:31.265Z,2140
2018-04-29T05:20:32.997Z,2212
2018-04-29T05:21:34.462Z,2268
2018-04-29T05:22:35.924Z,2300
2018-04-29T05:23:37.374Z,2344
2018-04-29T05:24:38.842Z,2372
2018-04-29T05:25:40.281Z,2388
2018-04-29T05:26:41.721Z,2400
2018-04-29T05:27:43.154Z,2412
2018-04-29T05:28:44.579Z,2412
2018-04-29T05:29:46.014Z,2404
2018-04-29T05:30:47.508Z,2388
2018-04-29T05:31:48.946Z,2372
2018-04-29T05:32:50.415Z,2348
2018-04-29T05:33:51.908Z,2320
2018-04-29T05:34:53.417Z,2288
2018-04-29T05:35:54.916Z,2256
2018-04-29T05:36:56.363Z,2236
2018-04-29T05:37:57.843Z,2232
2018-04-29T05:38:59.270Z,2256
2018-04-29T05:40:00.785Z,2292
2018-04-29T05:41:02.281Z,2352
2018-04-29T05:42:03.688Z,2388
2018-04-29T05:43:05.117Z,2436
2018-04-29T05:44:06.609Z,2404
2018-04-29T05:45:08.077Z,2460
2018-04-29T05:46:09.562Z,2496
2018-04-29T05:47:11.005Z,2516
2018-04-29T05:48:12.469Z,2556
2018-04-29T05:49:13.922Z,2560
2018-04-29T05:50:15.391Z,2588
2018-04-29T05:51:16.825Z,2596
2018-04-29T05:52:18.254Z,2672
2018-04-29T05:53:19.713Z,2680
2018-04-29T05:54:21.161Z,2512
2018-04-29T05:55:22.581Z,2552
2018-04-29T05:56:23.979Z,2600
2018-04-29T05:57:25.387Z,2680
2018-04-29T05:58:26.794Z,2768
2018-04-29T05:59:28.195Z,3044
2018-04-29T06:00:29.657Z,3148
2018-04-29T06:01:31.041Z,3172
2018-04-29T06:02:32.456Z,3208
2018-04-29T06:03:33.858Z,3224
2018-04-29T06:04:35.260Z,3188
2018-04-29T06:05:36.659Z,3380
2018-04-29T06:06:38.094Z,3428
2018-04-29T06:07:39.490Z,3364
2018-04-29T06:08:40.897Z,3332
2018-04-29T06:09:42.301Z,3200
2018-04-29T06:10:43.706Z,3148
2018-04-29T06:11:45.131Z,3116
2018-04-29T06:12:46.533Z,3280
2018-04-29T06:13:47.953Z,3576
2018-04-29T06:14:49.353Z,3752
2018-04-29T06:15:50.771Z,3904
2018-04-29T06:16:52.173Z,4328
2018-04-29T06:17:53.581Z,4580
2018-04-29T06:18:54.997Z,4480
2018-04-29T06:19:56.394Z,4520
2018-04-29T06:20:57.800Z,4712
2018-04-29T06:21:59.220Z,4776
2018-04-29T06:23:00.623Z,5084
2018-04-29T06:24:02.076Z,5032
2018-04-29T06:25:03.481Z,4912
2018-04-29T06:26:04.970Z,4036
2018-04-29T06:27:06.294Z,4360
2018-04-29T06:28:07.702Z,4728
2018-04-29T06:29:09.116Z,4784
2018-04-29T06:30:10.523Z,4832
2018-04-29T06:31:11.953Z,5008
2018-04-29T06:32:13.362Z,5404
2018-04-29T06:33:14.770Z,5236
2018-04-29T06:34:16.175Z,4888
2018-04-29T06:35:17.584Z,5516
2018-04-29T06:36:18.992Z,5640
2018-04-29T06:37:20.398Z,5888
2018-04-29T06:38:21.810Z,6468
2018-04-29T06:39:23.230Z,6732
2018-04-29T06:40:24.636Z,6496
2018-04-29T06:41:26.045Z,6032
2018-04-29T06:42:27.450Z,5908
2018-04-29T06:43:28.866Z,5520
2018-04-29T06:44:30.271Z,5780
2018-04-29T06:45:31.680Z,5044
2018-04-29T06:46:33.096Z,4236
2018-04-29T06:47:34.498Z,4020
2018-04-29T06:48:35.926Z,4164
2018-04-29T06:49:37.339Z,5292
2018-04-29T06:50:38.746Z,5772
2018-04-29T06:51:40.157Z,5884
2018-04-29T06:52:41.568Z,5416
2018-04-29T06:53:42.972Z,5972
2018-04-29T06:54:44.378Z,6332
2018-04-29T06:55:45.789Z,6520
2018-04-29T06:56:47.194Z,6408
2018-04-29T06:57:48.611Z,6464
2018-04-29T06:58:50.014Z,5900
2018-04-29T06:59:51.421Z,5800
2018-04-29T07:00:52.868Z,5472
2018-04-29T07:01:54.264Z,4560
2018-04-29T07:02:55.695Z,4960
2018-04-29T07:03:57.123Z,4604
2018-04-29T07:04:58.535Z,5020
2018-04-29T07:05:59.951Z,5132
2018-04-29T07:07:01.386Z,5296
2018-04-29T07:08:02.815Z,5220
2018-04-29T07:09:04.265Z,5148
2018-04-29T07:10:05.768Z,5160
2018-04-29T07:11:07.194Z,5104
2018-04-29T07:12:08.629Z,5084
2018-04-29T07:13:10.062Z,4960
2018-04-29T07:14:11.596Z,4892
2018-04-29T07:15:13.039Z,5192
2018-04-29T07:16:14.555Z,5276
2018-04-29T07:17:16.085Z,5472
2018-04-29T07:18:17.539Z,5756
2018-04-29T07:19:18.997Z,5932
2018-04-29T07:20:20.423Z,3904
2018-04-29T07:21:22.637Z,6280
2018-04-29T07:22:24.227Z,6428
2018-04-29T07:23:26.034Z,6564
2018-04-29T07:24:27.545Z,6740
2018-04-29T07:25:29.012Z,7064
2018-04-29T07:26:30.551Z,6996
2018-04-29T07:27:32.235Z,6836
2018-04-29T07:28:33.986Z,6548
2018-04-29T07:29:35.834Z,6480
2018-04-29T07:30:37.573Z,6428
2018-04-29T07:31:39.404Z,6320
2018-04-29T07:32:41.084Z,6272
2018-04-29T07:33:42.963Z,6300
2018-04-29T07:34:44.810Z,6304
2018-04-29T07:35:46.360Z,6344
2018-04-29T07:36:48.009Z,6368
2018-04-29T07:37:49.631Z,6380
2018-04-29T07:38:51.411Z,6384
2018-04-29T07:39:52.998Z,6416
2018-04-29T07:40:54.790Z,6440
2018-04-29T07:41:57.971Z,6500
2018-04-29T07:42:59.713Z,6520
2018-04-29T07:44:01.692Z,6564
2018-04-29T07:45:04.503Z,6616
2018-04-29T07:46:06.034Z,6632
2018-04-29T07:47:07.675Z,5784
2018-04-29T07:48:09.245Z,5800
2018-04-29T07:49:10.716Z,5844
2018-04-29T07:50:12.781Z,6068
2018-04-29T07:51:21.684Z,6644
2018-04-29T07:52:48.033Z,6728
2018-04-29T07:53:50.758Z,6544
2018-04-29T07:54:53.752Z,6808
2018-04-29T07:55:55.377Z,6496
2018-04-29T07:56:57.042Z,6540
2018-04-29T07:57:58.755Z,6552
2018-04-29T07:59:00.240Z,6512
2018-04-29T08:00:01.673Z,6584
2018-04-29T08:01:03.093Z,6620
2018-04-29T08:02:04.535Z,6652
2018-04-29T08:03:06.212Z,6692
2018-04-29T08:04:07.641Z,7064
2018-04-29T08:05:09.150Z,6772
2018-04-29T08:06:10.642Z,6736
2018-04-29T08:07:12.113Z,6860
2018-04-29T08:08:15.997Z,7152
2018-04-29T08:09:17.462Z,7316
2018-04-29T08:10:19.211Z,7368
2018-04-29T08:11:21.066Z,7416
2018-04-29T08:12:26.096Z,7412
2018-04-29T08:13:28.040Z,7504
2018-04-29T08:14:29.729Z,7600
2018-04-29T08:15:31.307Z,7676
2018-04-29T08:16:32.883Z,7788
2018-04-29T08:17:42.089Z,7820
2018-04-29T08:18:43.531Z,7500
2018-04-29T08:19:45.038Z,7128
2018-04-29T08:20:46.547Z,7528
2018-04-29T08:24:54.273Z,8224
2018-04-29T08:25:55.687Z,8048
2018-04-29T08:26:57.095Z,8020
2018-04-29T08:27:58.516Z,7524
2018-04-29T08:28:59.947Z,8140
2018-04-29T08:30:01.382Z,8208
2018-04-29T08:31:02.800Z,8700
2018-04-29T08:32:04.393Z,8776
2018-04-29T08:33:05.822Z,7628
2018-04-29T08:34:07.291Z,8908
2018-04-29T08:35:09.141Z,9084
2018-04-29T08:36:10.455Z,9052
2018-04-29T08:37:12.491Z,9000
2018-04-29T08:38:14.064Z,9164
2018-04-29T08:39:15.582Z,9072
2018-04-29T08:40:17.379Z,9364
2018-04-29T08:41:18.894Z,9456
2018-04-29T08:42:20.789Z,9564
2018-04-29T08:43:22.646Z,9248
2018-04-29T08:44:26.620Z,9524
2018-04-29T08:45:28.112Z,9548
2018-04-29T08:46:30.028Z,9520
2018-04-29T08:47:32.277Z,9612
2018-04-29T08:48:34.095Z,9636
2018-04-29T08:49:35.579Z,9712
2018-04-29T08:50:37.160Z,9772
2018-04-29T08:51:38.708Z,9644
2018-04-29T08:52:40.315Z,9764
2018-04-29T08:53:41.903Z,9736
2018-04-29T08:54:43.405Z,9800
2018-04-29T08:55:45.313Z,9784
2018-04-29T08:56:46.910Z,9884
2018-04-29T08:57:48.435Z,9888
2018-04-29T08:58:50.131Z,9960
2018-04-29T08:59:51.632Z,10152
2018-04-29T09:00:53.216Z,10092
2018-04-29T09:01:54.731Z,9788
2018-04-29T09:02:56.297Z,9988
2018-04-29T09:03:58.107Z,10172
2018-04-29T09:04:59.631Z,10120
2018-04-29T09:06:01.236Z,10132
2018-04-29T09:07:03.445Z,10152
2018-04-29T09:08:05.194Z,10160
2018-04-29T09:09:06.737Z,10144
2018-04-29T09:10:08.244Z,10116
2018-04-29T09:11:09.808Z,10096
2018-04-29T09:12:13.058Z,10116
2018-04-29T09:13:15.142Z,10184
2018-04-29T09:14:16.788Z,10200
2018-04-29T09:15:18.503Z,10172
2018-04-29T09:16:20.166Z,10160
2018-04-29T09:17:23.765Z,10224
2018-04-29T09:18:25.739Z,10260
2018-04-29T09:19:27.646Z,10260
2018-04-29T09:20:29.649Z,10028
2018-04-29T09:21:31.257Z,10288
2018-04-29T09:22:32.973Z,10416
2018-04-29T09:23:34.773Z,10460
2018-04-29T09:24:36.494Z,10564
2018-04-29T09:25:38.755Z,10652
2018-04-29T09:26:40.521Z,10692
2018-04-29T09:27:42.176Z,10792
2018-04-29T09:28:44.010Z,10856
2018-04-29T09:29:45.597Z,10948
2018-04-29T09:30:47.295Z,10996
2018-04-29T09:31:48.969Z,11008
2018-04-29T09:32:50.642Z,11092
2018-04-29T09:33:52.231Z,11184
2018-04-29T09:34:53.894Z,11252
2018-04-29T09:35:55.653Z,11372
2018-04-29T09:36:57.322Z,11496
2018-04-29T09:37:59.893Z,11580
2018-04-29T09:39:01.441Z,11596
2018-04-29T09:40:03.141Z,11732
2018-04-29T09:41:04.668Z,11796
2018-04-29T09:42:06.166Z,11896
2018-04-29T09:43:07.709Z,11992
2018-04-29T09:44:09.213Z,12080
2018-04-29T09:45:10.749Z,12228
2018-04-29T09:46:12.284Z,12328
2018-04-29T09:47:14.898Z,12420
2018-04-29T09:48:16.486Z,12488
2018-04-29T09:49:17.938Z,12528
2018-04-29T09:50:19.479Z,12648
2018-04-29T09:51:20.906Z,12740
2018-04-29T09:52:22.418Z,12768
2018-04-29T09:53:24.002Z,12804
2018-04-29T09:54:25.546Z,12884
2018-04-29T09:55:27.036Z,12940
2018-04-29T09:56:28.611Z,13068
2018-04-29T09:57:30.139Z,13104
2018-04-29T09:58:31.719Z,13176
2018-04-29T09:59:33.347Z,13236
2018-04-29T10:00:35.008Z,13228
2018-04-29T10:01:36.571Z,13236
2018-04-29T10:02:38.313Z,13348
2018-04-29T10:03:39.828Z,13432
2018-04-29T10:04:41.336Z,13444
2018-04-29T10:05:42.850Z,13364
2018-04-29T10:06:44.356Z,13232
2018-04-29T10:07:46.024Z,13212
2018-04-29T10:08:47.671Z,13232
2018-04-29T10:09:49.189Z,13216
2018-04-29T10:10:50.792Z,13244
2018-04-29T10:11:52.269Z,13136
2018-04-29T10:12:53.835Z,13076
2018-04-29T10:13:55.347Z,13096
2018-04-29T10:14:56.881Z,12988
2018-04-29T10:15:58.408Z,12876
2018-04-29T10:17:00.453Z,12812
2018-04-29T10:18:02.011Z,12756
2018-04-29T10:19:03.821Z,12696
2018-04-29T10:20:05.332Z,12660
2018-04-29T10:21:06.921Z,12724
2018-04-29T10:22:08.390Z,12732
2018-04-29T10:23:09.921Z,12760
2018-04-29T10:24:11.430Z,12700
2018-04-29T10:25:12.996Z,12668
2018-04-29T10:26:14.645Z,12676
2018-04-29T10:27:16.533Z,12704
2018-04-29T10:28:18.081Z,12696
2018-04-29T10:29:19.679Z,12748
2018-04-29T10:30:21.347Z,12804
2018-04-29T10:31:23.045Z,12888
2018-04-29T10:32:24.649Z,12856
2018-04-29T10:33:26.212Z,12900
2018-04-29T10:34:27.707Z,12888
2018-04-29T10:35:29.388Z,12948
2018-04-29T10:36:30.947Z,13036
2018-04-29T10:37:32.501Z,13036
2018-04-29T10:38:34.033Z,13036
2018-04-29T10:39:37.091Z,13104
2018-04-29T10:40:48.590Z,13124
2018-04-29T10:41:53.806Z,13268
2018-04-29T10:43:05.467Z,13284
2018-04-29T10:44:07.059Z,13404
2018-04-29T10:45:09.449Z,13508
2018-04-29T10:46:12.651Z,13596
2018-04-29T10:47:14.204Z,13752
2018-04-29T10:48:15.713Z,13940
2018-04-29T10:49:17.233Z,14160
2018-04-29T10:50:18.877Z,14564
2018-04-29T10:51:20.356Z,14960
2018-04-29T10:52:21.905Z,15392
2018-04-29T10:53:23.535Z,15840
2018-04-29T10:54:25.454Z,16288
2018-04-29T10:55:27.011Z,16800
2018-04-29T10:56:28.537Z,17472
2018-04-29T10:57:30.337Z,18240
2018-04-29T10:58:31.888Z,18912
2018-04-29T10:59:33.529Z,19424
2018-04-29T11:00:35.054Z,20096
2018-04-29T11:01:36.537Z,20864
2018-04-29T11:02:38.374Z,24256
2018-04-29T11:03:39.866Z,39840
2018-04-29T11:04:41.365Z,49312
2018-04-29T11:05:43.957Z,47488
2018-04-29T11:06:46.070Z,44896
2018-04-29T11:07:49.065Z,46240
2018-04-29T11:08:50.720Z,47264
2018-04-29T11:09:52.485Z,50976
2018-04-29T11:10:54.123Z,52320
2018-04-29T11:11:55.629Z,52192
2018-04-29T11:12:57.142Z,52960
2018-04-29T11:13:58.735Z,53024
2018-04-29T11:15:00.378Z,53536
2018-04-29T11:16:02.123Z,53376
2018-04-29T11:17:03.747Z,56000
2018-04-29T11:18:05.355Z,55616
2018-04-29T11:19:06.987Z,52544
2018-04-29T11:20:08.510Z,53344
2018-04-29T11:21:10.058Z,54176
2018-04-29T11:22:11.615Z,52256
2018-04-29T11:23:13.151Z,50496
2018-04-29T11:24:14.733Z,53408
2018-04-29T11:25:16.319Z,55360
2018-04-29T11:26:17.765Z,54944
2018-04-29T11:27:23.395Z,55808
2018-04-29T11:28:25.938Z,57856
2018-04-29T11:29:28.812Z,58368
2018-04-29T11:30:31.616Z,56256
2018-04-29T11:31:37.238Z,55744
2018-04-29T11:32:40.940Z,55904
2018-04-29T11:33:44.437Z,58176
2018-04-29T11:34:49.452Z,56224
2018-04-29T11:35:51.295Z,54560
2018-04-29T11:37:04.966Z,58112
2018-04-29T11:38:10.745Z,59040
2018-04-29T11:39:14.378Z,58976
2018-04-29T11:40:18.969Z,59360
2018-04-29T11:41:38.042Z,59680
2018-04-29T11:42:41.381Z,60448
2018-04-29T11:43:43.499Z,61120
2018-04-29T11:44:45.841Z,60320
2018-04-29T11:45:47.440Z,57696
2018-04-29T11:46:49.115Z,56896
2018-04-29T11:47:50.736Z,57152
2018-04-29T11:48:52.454Z,57600
2018-04-29T11:49:54.016Z,56416
2018-04-29T11:50:55.613Z,54528
2018-04-29T11:51:57.272Z,58144
2018-04-29T11:52:58.908Z,60224
2018-04-29T11:54:00.581Z,55808
2018-04-29T11:55:02.407Z,54208
2018-04-29T11:56:04.038Z,57664
2018-04-29T11:57:06.883Z,57856
2018-04-29T11:58:08.553Z,55488
2018-04-29T11:59:10.203Z,59040
2018-04-29T12:00:11.682Z,61536
2018-04-29T12:01:13.181Z,60704
2018-04-29T12:02:14.735Z,60896
2018-04-29T12:03:16.430Z,60928
2018-04-29T12:04:20.424Z,58240
2018-04-29T12:05:26.761Z,56832
2018-04-29T12:06:30.069Z,62304
2018-04-29T12:07:31.657Z,63584
2018-04-29T12:08:35.708Z,62528
2018-04-29T12:09:38.249Z,61792
2018-04-29T12:10:39.821Z,56352
2018-04-29T12:11:41.392Z,52864
2018-04-29T12:12:43.226Z,60160
2018-04-29T12:13:44.847Z,64288
2018-04-29T12:14:46.572Z,66880
2018-04-29T12:15:48.427Z,63040
2018-04-29T12:16:50.200Z,57408
2018-04-29T12:17:51.845Z,58528
2018-04-29T12:18:53.659Z,57792
2018-04-29T12:19:55.372Z,58144
2018-04-29T12:20:57.042Z,62592
2018-04-29T12:21:59.021Z,64896
2018-04-29T12:23:00.686Z,63840
2018-04-29T12:24:02.233Z,62848
2018-04-29T12:25:03.983Z,62496
2018-04-29T12:26:07.051Z,62848
2018-04-29T12:27:08.463Z,61984
2018-04-29T12:28:10.052Z,62752
2018-04-29T12:29:11.672Z,67296
2018-04-29T12:30:13.210Z,67520
2018-04-29T12:31:14.754Z,67904
2018-04-29T12:32:16.271Z,65536
2018-04-29T12:33:17.796Z,62624
2018-04-29T12:34:19.898Z,62912
2018-04-29T12:35:21.515Z,66816
2018-04-29T12:36:23.067Z,69856
2018-04-29T12:37:24.607Z,69024
2018-04-29T12:38:26.333Z,66720
2018-04-29T12:39:27.914Z,65952
2018-04-29T12:40:29.576Z,66240
2018-04-29T12:41:31.309Z,68096
2018-04-29T12:42:32.899Z,66176
2018-04-29T12:43:34.558Z,64384
2018-04-29T12:44:36.090Z,50240
2018-04-29T12:45:37.733Z,31680
2018-04-29T12:46:39.388Z,28928
2018-04-29T12:47:41.810Z,28416
2018-04-29T12:48:43.344Z,28032
2018-04-29T12:49:44.905Z,27840
2018-04-29T12:50:46.364Z,28096
2018-04-29T12:51:47.825Z,31200
2018-04-29T12:52:49.273Z,50368
2018-04-29T12:53:50.714Z,67520
2018-04-29T12:54:52.144Z,69472
2018-04-29T12:55:53.570Z,68512
2018-04-29T12:56:54.990Z,70016
2018-04-29T12:57:56.475Z,67104
2018-04-29T12:58:58.018Z,62304
2018-04-29T12:59:59.610Z,64064
2018-04-29T13:01:00.971Z,70848
2018-04-29T13:02:02.400Z,72480
2018-04-29T13:03:03.839Z,71040
2018-04-29T13:04:05.350Z,69536
2018-04-29T13:05:06.653Z,69696
2018-04-29T13:06:08.071Z,71648
2018-04-29T13:07:09.498Z,69280
2018-04-29T13:08:10.927Z,68288
2018-04-29T13:09:12.344Z,72544
2018-04-29T13:10:13.777Z,75104
2018-04-29T13:11:15.197Z,71648
2018-04-29T13:12:16.626Z,68320
2018-04-29T13:13:18.071Z,67008
2018-04-29T13:14:19.496Z,67392
2018-04-29T13:15:20.926Z,69632
2018-04-29T13:16:22.348Z,72512
2018-04-29T13:17:23.854Z,70912
2018-04-29T13:18:25.279Z,71424
2018-04-29T13:19:26.695Z,71392
2018-04-29T13:20:28.136Z,72672
2018-04-29T13:21:29.626Z,74592
2018-04-29T13:22:30.978Z,74464
2018-04-29T13:23:32.399Z,74240
2018-04-29T13:24:33.829Z,73408
2018-04-29T13:25:35.253Z,71040
2018-04-29T13:26:36.677Z,68800
2018-04-29T13:27:38.107Z,69120
2018-04-29T13:28:39.533Z,71264
2018-04-29T13:29:41.043Z,77408
2018-04-29T13:30:42.379Z,81440
2018-04-29T13:31:43.813Z,65344
2018-04-29T13:32:45.234Z,76608
2018-04-29T13:33:46.657Z,44544
2018-04-29T13:34:48.089Z,73760
2018-04-29T13:35:49.553Z,38208
2018-04-29T13:36:50.935Z,60768
2018-04-29T13:37:52.365Z,61184
2018-04-29T13:38:53.797Z,59360
2018-04-29T13:39:55.211Z,15136
2018-04-29T13:40:56.642Z,13784
2018-04-29T13:41:58.145Z,23488
2018-04-29T13:42:59.486Z,15488
2018-04-29T13:44:00.906Z,15544
2018-04-29T13:45:02.337Z,15216
2018-04-29T13:46:03.755Z,14456
2018-04-29T13:47:05.173Z,13588
2018-04-29T13:48:06.598Z,13796
2018-04-29T13:49:08.021Z,13084
2018-04-29T13:50:09.446Z,13360
2018-04-29T13:51:10.868Z,15700
2018-04-29T13:52:12.289Z,19808
2018-04-29T13:53:13.738Z,25536
2018-04-29T13:54:15.187Z,24960
2018-04-29T13:55:16.610Z,33184
2018-04-29T13:56:18.035Z,36032
2018-04-29T13:57:19.455Z,28672
2018-04-29T13:58:20.872Z,16412
2018-04-29T13:59:22.305Z,18336
2018-04-29T14:00:23.735Z,24032
2018-04-29T14:01:25.156Z,56864